Time;durP1;ratioP1;P1;durP2;ratioP2;P2;SDS_P1;SDS_P2;PMS_P1;PMS_P2;Temp;Humidity;BMP_temperature;BMP_pressure;BME280_temperature;BME280_humidity;BME280_pressure;Samples;Min_cycle;Max_cycle;Signal;HPM_P1;HPM_P2
2023/01/03 00:01:22;;;;;;;11.05;5.35;;;3.80;99.90;;;;;;5919488;24;20472;-89
2023/01/03 00:03:48;;;;;;;12.43;5.60;;;3.80;99.90;;;;;;5943862;24;20095;-89
2023/01/03 00:06:21;;;;;;;11.60;5.80;;;3.70;99.90;;;;;;5967014;24;20060;-89
2023/01/03 00:08:47;;;;;;;10.75;5.25;;;3.80;99.90;;;;;;5943167;24;20024;-88
2023/01/03 00:11:15;;;;;;;9.55;5.43;;;3.80;99.90;;;;;;5920378;24;20071;-89
2023/01/03 00:13:41;;;;;;;12.48;5.30;;;3.80;99.90;;;;;;5967075;24;20020;-89
2023/01/03 00:16:16;;;;;;;14.07;4.95;;;3.70;99.90;;;;;;5942918;24;20054;-89
2023/01/03 00:18:42;;;;;;;12.15;4.93;;;3.80;99.90;;;;;;5944380;24;20020;-89
2023/01/03 00:21:07;;;;;;;12.05;5.45;;;3.70;99.90;;;;;;5919078;24;20419;-89
2023/01/03 00:23:33;;;;;;;14.73;5.25;;;3.70;99.90;;;;;;5942504;24;20020;-88
2023/01/03 00:25:58;;;;;;;8.68;5.15;;;3.60;99.90;;;;;;5918295;24;20151;-89
2023/01/03 00:28:27;;;;;;;11.10;5.03;;;3.60;99.90;;;;;;5918404;24;20027;-89
2023/01/03 00:30:53;;;;;;;9.82;5.35;;;3.60;99.90;;;;;;5918181;24;20020;-89
2023/01/03 00:33:19;;;;;;;11.88;5.20;;;3.60;99.90;;;;;;5918075;24;20016;-90
2023/01/03 00:35:45;;;;;;;10.82;5.88;;;3.50;99.90;;;;;;5917966;24;20028;-90
2023/01/03 00:38:10;;;;;;;14.93;6.45;;;3.40;99.90;;;;;;5917873;24;20020;-89
2023/01/03 00:40:36;;;;;;;11.77;6.15;;;3.30;99.90;;;;;;5941508;24;20029;-89
2023/01/03 00:45:49;;;;;;;11.80;5.38;;;3.30;99.90;;;;;;5941588;24;20473;-90
2023/01/03 00:48:14;;;;;;;11.90;5.43;;;3.30;99.90;;;;;;5919374;24;20020;-90
2023/01/03 00:50:40;;;;;;;12.55;5.20;;;3.20;99.90;;;;;;5939757;24;20091;-90
2023/01/03 00:53:05;;;;;;;9.82;5.03;;;3.20;99.90;;;;;;5918954;24;20023;-88
2023/01/03 00:55:33;;;;;;;9.65;4.75;;;3.10;99.90;;;;;;5941395;24;20510;-90
2023/01/03 00:57:59;;;;;;;14.98;5.70;;;3.10;99.90;;;;;;5942110;24;20020;-90
2023/01/03 01:00:25;;;;;;;12.10;5.05;;;3.10;99.90;;;;;;5918316;24;20404;-89
2023/01/03 01:02:52;;;;;;;10.30;5.60;;;3.10;99.90;;;;;;5918383;24;20031;-90
2023/01/03 01:05:18;;;;;;;11.88;5.53;;;3.00;99.90;;;;;;5941056;24;20053;-89
2023/01/03 01:07:44;;;;;;;10.30;5.80;;;3.00;99.90;;;;;;5917440;24;20203;-90
2023/01/03 01:10:09;;;;;;;10.50;5.13;;;3.00;99.90;;;;;;5917932;24;20024;-88
2023/01/03 01:12:35;;;;;;;13.23;5.40;;;3.00;99.90;;;;;;5918766;24;20028;-89
2023/01/03 01:15:01;;;;;;;11.20;5.55;;;3.00;99.90;;;;;;5918186;24;20043;-88
2023/01/03 01:17:27;;;;;;;8.88;5.65;;;2.90;99.90;;;;;;5919123;24;20131;-89
2023/01/03 01:19:53;;;;;;;11.90;5.68;;;2.90;99.90;;;;;;5917099;24;20031;-90
2023/01/03 01:22:19;;;;;;;12.98;6.10;;;2.90;99.90;;;;;;5917261;24;20020;-87
2023/01/03 01:24:44;;;;;;;11.02;5.82;;;2.90;99.90;;;;;;5918748;24;20369;-89
2023/01/03 01:27:13;;;;;;;13.43;5.93;;;2.90;99.90;;;;;;5917673;24;20102;-89
2023/01/03 01:29:38;;;;;;;14.43;6.13;;;3.00;99.90;;;;;;5943061;24;20020;-88
2023/01/03 01:32:05;;;;;;;11.20;5.95;;;3.10;99.90;;;;;;5943953;24;20485;-89
2023/01/03 01:34:34;;;;;;;12.30;6.07;;;3.10;99.90;;;;;;5965984;24;20039;-89
2023/01/03 01:37:00;;;;;;;10.23;5.93;;;3.10;99.90;;;;;;5919180;24;20437;-89
2023/01/03 01:39:27;;;;;;;10.60;5.63;;;3.20;99.90;;;;;;5921921;24;20403;-89
2023/01/03 01:45:04;;;;;;;12.10;6.30;;;3.30;99.90;;;;;;5943107;24;20063;-89
2023/01/03 01:47:35;;;;;;;15.02;6.40;;;3.30;99.90;;;;;;5920552;24;20091;-89
2023/01/03 01:50:38;;;;;;;11.70;5.60;;;3.30;99.90;;;;;;5919095;24;20020;-88
2023/01/03 01:53:11;;;;;;;9.70;5.95;;;3.30;99.90;;;;;;5942686;24;20093;-88
2023/01/03 01:55:52;;;;;;;18.00;7.05;;;3.40;99.90;;;;;;5987322;23;20144;-88
2023/01/03 01:58:21;;;;;;;11.93;6.13;;;3.40;99.90;;;;;;5920219;24;20463;-90
2023/01/03 02:00:46;;;;;;;13.60;5.80;;;3.40;99.90;;;;;;5940566;24;20016;-89
2023/01/03 02:03:12;;;;;;;11.60;5.32;;;3.40;99.90;;;;;;5942766;24;20874;-90
2023/01/03 02:05:43;;;;;;;14.40;5.70;;;3.40;99.90;;;;;;5942470;24;20047;-89
2023/01/03 02:08:09;;;;;;;15.50;5.90;;;3.50;99.90;;;;;;5918933;24;20016;-90
2023/01/03 02:11:16;;;;;;;14.07;5.38;;;3.50;99.90;;;;;;5943513;24;20024;-89
2023/01/03 02:14:27;;;;;;;13.32;5.10;;;3.40;99.90;;;;;;5947427;24;20024;-90
2023/01/03 02:17:11;;;;;;;13.35;5.20;;;3.50;99.90;;;;;;5965349;24;20118;-89
2023/01/03 02:19:51;;;;;;;11.63;5.85;;;3.50;99.90;;;;;;5964754;24;20102;-89
2023/01/03 02:22:29;;;;;;;11.20;6.10;;;3.50;99.90;;;;;;5942459;24;20023;-89
2023/01/03 02:25:18;;;;;;;15.57;6.32;;;3.50;99.90;;;;;;5966270;24;20034;-90
2023/01/03 02:28:35;;;;;;;17.65;5.47;;;3.60;99.90;;;;;;5935587;24;20183;-89
2023/01/03 02:31:57;;;;;;;14.32;5.60;;;3.60;99.90;;;;;;5934607;24;20110;-89
2023/01/03 02:34:30;;;;;;;16.25;6.80;;;3.70;99.90;;;;;;5886119;24;20017;-88
2023/01/03 02:37:02;;;;;;;8.02;5.53;;;3.70;99.90;;;;;;5909790;24;20581;-89
2023/01/03 02:39:47;;;;;;;11.13;6.35;;;3.70;99.90;;;;;;5964086;24;20024;-89
2023/01/03 02:45:29;;;;;;;10.98;5.95;;;3.70;99.90;;;;;;5942697;24;20683;-89
2023/01/03 02:48:16;;;;;;;9.98;5.88;;;3.70;99.90;;;;;;5920523;24;20062;-88
2023/01/03 02:50:50;;;;;;;10.00;5.78;;;3.60;99.90;;;;;;5918973;24;20055;-90
2023/01/03 02:53:24;;;;;;;10.50;6.40;;;3.50;99.90;;;;;;5942368;24;20508;-90
2023/01/03 02:55:53;;;;;;;15.17;6.37;;;3.40;99.90;;;;;;5920253;24;20024;-90
2023/01/03 02:58:24;;;;;;;18.05;6.93;;;3.30;99.90;;;;;;5919649;24;20069;-89
2023/01/03 03:01:02;;;;;;;12.65;6.65;;;3.20;99.90;;;;;;5918435;24;20450;-89
2023/01/03 03:03:32;;;;;;;12.38;6.55;;;3.20;99.90;;;;;;5919967;24;20107;-89
2023/01/03 03:06:33;;;;;;;19.13;7.00;;;3.10;99.90;;;;;;5920023;24;20224;-90
2023/01/03 03:08:58;;;;;;;16.90;7.15;;;3.10;99.90;;;;;;5920502;24;20051;-90
2023/01/03 03:14:24;;;;;;;15.90;7.97;;;3.00;99.90;;;;;;5944122;24;20071;-89
2023/01/03 03:16:52;;;;;;;16.52;8.05;;;3.00;99.90;;;;;;5942196;24;20024;-89
2023/01/03 03:25:24;;;;;;;16.58;8.60;;;2.90;99.90;;;;;;5957518;24;20026;-88
2023/01/03 03:30:42;;;;;;;21.77;10.32;;;2.80;99.90;;;;;;5942886;24;20024;-90
2023/01/03 03:33:11;;;;;;;22.33;10.88;;;2.80;99.90;;;;;;5966469;24;20031;-90
2023/01/03 03:35:52;;;;;;;24.63;11.55;;;2.80;99.90;;;;;;5965796;23;20016;-88
2023/01/03 03:38:40;;;;;;;28.88;11.75;;;2.80;99.90;;;;;;5965757;24;20020;-90
2023/01/03 03:47:44;;;;;;;26.95;12.52;;;2.70;99.90;;;;;;5942988;24;20026;-87
2023/01/03 03:50:09;;;;;;;23.40;12.43;;;2.70;99.90;;;;;;5965639;24;20083;-89
2023/01/03 03:52:36;;;;;;;23.00;11.90;;;2.60;99.90;;;;;;5965142;24;20418;-88
2023/01/03 03:55:08;;;;;;;24.83;12.82;;;2.60;99.90;;;;;;5989257;23;20258;-88
2023/01/03 03:57:45;;;;;;;26.67;13.88;;;2.60;99.90;;;;;;5920038;24;20016;-88
2023/01/03 04:00:15;;;;;;;24.85;13.30;;;2.60;99.90;;;;;;5964807;24;20051;-89
2023/01/03 04:02:45;;;;;;;27.13;13.65;;;2.60;99.90;;;;;;5960511;24;20027;-88
2023/01/03 04:05:16;;;;;;;32.03;13.63;;;2.60;99.90;;;;;;5960854;24;20332;-88
2023/01/03 04:07:41;;;;;;;25.08;13.57;;;2.50;99.90;;;;;;5937361;24;20017;-89
2023/01/03 04:10:08;;;;;;;31.95;14.13;;;2.50;99.90;;;;;;5985070;23;20510;-89
2023/01/03 04:12:37;;;;;;;30.65;14.02;;;2.40;99.90;;;;;;5960518;24;20444;-89
2023/01/03 04:15:08;;;;;;;26.55;13.70;;;2.40;99.90;;;;;;5960398;24;20052;-89
2023/01/03 04:17:34;;;;;;;28.13;13.98;;;2.40;99.90;;;;;;5961658;24;20028;-86
2023/01/03 04:20:00;;;;;;;31.20;15.38;;;2.50;99.90;;;;;;5960763;24;20095;-88
2023/01/03 04:22:25;;;;;;;30.25;14.93;;;2.50;99.90;;;;;;5961001;24;20192;-87
2023/01/03 04:24:51;;;;;;;28.00;14.48;;;2.40;99.90;;;;;;5984212;23;20394;-87
2023/01/03 04:27:16;;;;;;;26.98;14.60;;;2.40;99.90;;;;;;5984085;23;20439;-88
2023/01/03 04:29:42;;;;;;;29.60;15.70;;;2.50;99.90;;;;;;5960936;24;20024;-88
2023/01/03 04:32:11;;;;;;;32.10;15.80;;;2.40;99.90;;;;;;5960461;24;20027;-90
2023/01/03 04:34:36;;;;;;;32.30;15.93;;;2.40;99.90;;;;;;5983905;23;20047;-89
2023/01/03 04:37:02;;;;;;;30.95;16.38;;;2.40;99.90;;;;;;5960360;24;20020;-88
2023/01/03 04:39:27;;;;;;;35.17;16.20;;;2.40;99.90;;;;;;5937028;24;20254;-88
2023/01/03 04:41:53;;;;;;;28.58;15.68;;;2.40;99.90;;;;;;5983274;23;20052;-88
2023/01/03 04:44:19;;;;;;;36.60;16.40;;;2.50;99.90;;;;;;5960466;24;20179;-88
2023/01/03 04:46:44;;;;;;;41.63;17.55;;;2.60;99.90;;;;;;5937438;24;20755;-87
2023/01/03 04:49:10;;;;;;;34.53;17.58;;;2.60;99.90;;;;;;5914018;24;20096;-87
2023/01/03 04:51:39;;;;;;;36.85;17.25;;;2.70;99.90;;;;;;5959392;24;20108;-88
2023/01/03 04:54:08;;;;;;;35.33;17.27;;;2.70;99.90;;;;;;5960238;24;20247;-87
2023/01/03 04:56:36;;;;;;;37.95;18.30;;;2.70;99.90;;;;;;5961101;24;20100;-89
2023/01/03 04:59:02;;;;;;;37.05;17.42;;;2.70;99.90;;;;;;5961371;24;20077;-89
2023/01/03 05:01:31;;;;;;;38.40;18.02;;;2.80;99.90;;;;;;5984053;23;20097;-88
2023/01/03 05:03:59;;;;;;;38.42;18.13;;;2.80;99.90;;;;;;5961089;24;20361;-88
2023/01/03 05:06:28;;;;;;;41.00;19.38;;;2.80;99.90;;;;;;5961649;24;20025;-89
2023/01/03 05:08:54;;;;;;;41.80;19.23;;;2.90;99.90;;;;;;5916384;24;20055;-89
2023/01/03 05:11:24;;;;;;;37.13;18.45;;;2.90;99.90;;;;;;5961867;24;20355;-88
2023/01/03 05:13:58;;;;;;;39.13;18.08;;;3.00;99.90;;;;;;5961804;24;20024;-87
2023/01/03 05:16:27;;;;;;;36.85;17.92;;;3.10;99.90;;;;;;5938570;24;20021;-89
2023/01/03 05:18:52;;;;;;;41.53;18.73;;;3.10;99.90;;;;;;5938809;24;20409;-87
2023/01/03 05:26:53;;;;;;;43.33;20.13;;;3.30;99.90;;;;;;5939083;24;20392;-88
2023/01/03 05:29:20;;;;;;;37.15;19.30;;;3.30;99.90;;;;;;5962720;24;20084;-88
2023/01/03 05:31:46;;;;;;;40.33;19.35;;;3.30;99.90;;;;;;5960588;24;20519;-88
2023/01/03 05:34:12;;;;;;;42.15;20.23;;;3.40;99.90;;;;;;5962991;24;20165;-88
2023/01/03 05:36:38;;;;;;;42.50;20.17;;;3.40;99.90;;;;;;5985800;23;20228;-88
2023/01/03 05:39:04;;;;;;;39.63;20.40;;;3.40;99.90;;;;;;5962604;24;20017;-89
2023/01/03 05:44:17;;;;;;;42.65;20.45;;;3.40;99.90;;;;;;5940180;24;20044;-88
2023/01/03 05:46:43;;;;;;;43.92;20.98;;;3.50;99.90;;;;;;5961932;24;20017;-89
2023/01/03 05:49:09;;;;;;;44.97;20.48;;;3.50;99.90;;;;;;5959909;24;20179;-87
2023/01/03 05:51:34;;;;;;;42.30;20.42;;;3.50;99.90;;;;;;5984222;23;20123;-88
2023/01/03 05:54:00;;;;;;;43.22;21.75;;;3.50;99.90;;;;;;5938069;24;20120;-89
2023/01/03 05:56:26;;;;;;;46.72;21.13;;;3.50;99.90;;;;;;5961258;24;20339;-89
2023/01/03 05:58:52;;;;;;;46.45;22.65;;;3.50;99.90;;;;;;5985941;23;20548;-89
2023/01/03 06:01:18;;;;;;;43.90;22.20;;;3.50;99.90;;;;;;5937712;24;20205;-89
2023/01/03 06:03:45;;;;;;;48.08;21.80;;;3.50;99.90;;;;;;5961820;24;20159;-89
2023/01/03 06:06:12;;;;;;;40.50;22.38;;;3.60;99.90;;;;;;5960498;24;20071;-88
2023/01/03 06:08:38;;;;;;;49.72;22.35;;;3.50;99.90;;;;;;5962302;24;20016;-89
2023/01/03 06:11:06;;;;;;;45.33;23.60;;;3.50;99.90;;;;;;5961389;24;20067;-89
2023/01/03 06:13:34;;;;;;;48.03;22.80;;;3.50;99.90;;;;;;5962749;24;20020;-89
2023/01/03 06:18:54;;;;;;;42.20;22.30;;;3.40;99.90;;;;;;5938737;24;20039;-89
2023/01/03 06:21:20;;;;;;;44.20;22.65;;;3.30;99.90;;;;;;5984025;23;20021;-88
2023/01/03 06:23:46;;;;;;;44.58;22.73;;;3.20;99.90;;;;;;5961576;24;20013;-90
2023/01/03 06:26:20;;;;;;;46.65;23.30;;;3.20;99.90;;;;;;5962327;24;20041;-89
2023/01/03 06:28:46;;;;;;;48.70;23.08;;;3.00;99.90;;;;;;5962261;24;20021;-90
2023/01/03 06:31:12;;;;;;;44.58;22.65;;;3.00;99.90;;;;;;5960626;24;20027;-89
2023/01/03 06:33:39;;;;;;;53.05;22.65;;;2.90;99.90;;;;;;5985448;23;20062;-88
2023/01/03 06:36:13;;;;;;;44.85;22.80;;;2.90;99.90;;;;;;5959983;24;20484;-89
2023/01/03 06:38:39;;;;;;;48.85;23.70;;;2.80;99.90;;;;;;5961600;24;20450;-87
2023/01/03 06:41:06;;;;;;;42.97;22.27;;;2.80;99.90;;;;;;5961604;24;20028;-88
2023/01/03 06:43:32;;;;;;;47.03;22.35;;;2.70;99.90;;;;;;5961977;24;20133;-89
2023/01/03 06:54:33;;;;;;;49.83;23.20;;;2.60;99.90;;;;;;5936103;24;20030;-88
2023/01/03 06:56:59;;;;;;;58.90;25.17;;;2.50;99.90;;;;;;5961394;24;20020;-89
2023/01/03 06:59:25;;;;;;;50.03;24.98;;;2.50;99.90;;;;;;5939107;24;20108;-88
2023/01/03 07:01:52;;;;;;;50.47;23.58;;;2.50;99.90;;;;;;5937043;24;20016;-89
2023/01/03 07:04:19;;;;;;;45.17;22.77;;;2.40;99.90;;;;;;5960454;24;20024;-87
2023/01/03 07:06:45;;;;;;;52.28;23.35;;;2.40;99.90;;;;;;5960125;24;20017;-88
2023/01/03 07:09:11;;;;;;;46.78;22.67;;;2.30;99.90;;;;;;5937033;24;20013;-87
2023/01/03 07:11:40;;;;;;;43.10;21.33;;;2.30;99.90;;;;;;5960928;24;20230;-90
2023/01/03 07:14:08;;;;;;;42.58;21.40;;;2.30;99.90;;;;;;5937105;24;20020;-87
2023/01/03 07:16:36;;;;;;;45.40;21.75;;;2.20;99.90;;;;;;5961990;24;20063;-88
2023/01/03 07:19:03;;;;;;;44.83;21.85;;;2.20;99.90;;;;;;5937831;24;20020;-88
2023/01/03 07:21:34;;;;;;;47.05;21.75;;;2.20;99.90;;;;;;5957191;24;20101;-87
2023/01/03 07:24:01;;;;;;;48.25;21.60;;;2.10;99.90;;;;;;5960535;24;20164;-89
2023/01/03 07:26:32;;;;;;;49.15;23.08;;;2.10;99.90;;;;;;5959963;24;20471;-88
2023/01/03 07:28:59;;;;;;;48.10;21.30;;;2.10;99.90;;;;;;5961234;24;20016;-89
2023/01/03 07:31:25;;;;;;;38.05;21.08;;;2.10;99.90;;;;;;5913366;24;20374;-88
2023/01/03 07:33:52;;;;;;;47.08;22.08;;;2.20;99.90;;;;;;5960182;24;20024;-88
2023/01/03 07:36:18;;;;;;;50.30;23.15;;;2.10;99.90;;;;;;5959289;24;20035;-87
2023/01/03 07:38:45;;;;;;;46.35;23.42;;;2.00;99.90;;;;;;5958464;24;20032;-88
2023/01/03 07:41:11;;;;;;;43.85;21.23;;;2.10;99.90;;;;;;5959026;24;20389;-88
2023/01/03 07:43:45;;;;;;;41.55;21.48;;;2.10;99.90;;;;;;5959393;24;20029;-89
2023/01/03 07:46:16;;;;;;;47.20;23.40;;;2.10;99.90;;;;;;5959879;24;20092;-88
2023/01/03 07:48:43;;;;;;;51.25;22.88;;;2.10;99.90;;;;;;5982221;23;20132;-87
2023/01/03 07:51:10;;;;;;;42.10;21.45;;;2.00;99.90;;;;;;5958747;24;20392;-88
2023/01/03 07:53:36;;;;;;;48.38;21.65;;;2.10;99.90;;;;;;5957794;24;20464;-87
2023/01/03 07:56:12;;;;;;;42.40;20.38;;;2.00;99.90;;;;;;5960558;24;20377;-89
2023/01/03 07:58:40;;;;;;;49.70;21.08;;;1.90;99.90;;;;;;5959330;24;20039;-87
2023/01/03 08:01:08;;;;;;;44.47;20.30;;;2.00;99.90;;;;;;5959323;24;20366;-87
2023/01/03 08:03:34;;;;;;;43.05;21.25;;;1.90;99.90;;;;;;5935563;24;20172;-88
2023/01/03 08:06:05;;;;;;;44.05;22.73;;;1.90;99.90;;;;;;5982506;23;20025;-88
2023/01/03 08:08:31;;;;;;;45.95;23.63;;;1.90;99.90;;;;;;5936962;24;20017;-88
2023/01/03 08:13:42;;;;;;;;;;;1.90;99.90;;;;;;5938377;24;20024;-88
2023/01/03 08:16:13;;;;;;;45.28;23.55;;;1.90;99.90;;;;;;5960238;24;19982;-88
2023/01/03 08:18:40;;;;;;;43.97;23.25;;;2.00;99.90;;;;;;5959065;24;20025;-87
2023/01/03 08:21:08;;;;;;;42.75;23.60;;;2.00;99.90;;;;;;5959102;24;20162;-87
2023/01/03 08:23:34;;;;;;;49.63;25.42;;;2.00;99.90;;;;;;5983208;23;20017;-87
2023/01/03 08:26:06;;;;;;;50.90;23.90;;;2.00;99.90;;;;;;5983581;23;20099;-88
2023/01/03 08:28:32;;;;;;;50.85;24.50;;;2.00;99.90;;;;;;5936472;24;20023;-87
2023/01/03 08:31:01;;;;;;;48.42;23.52;;;2.00;99.90;;;;;;5936889;24;20414;-87
2023/01/03 08:33:30;;;;;;;49.53;25.42;;;2.00;99.90;;;;;;5957977;24;20020;-86
2023/01/03 08:36:02;;;;;;;52.42;26.02;;;2.10;99.90;;;;;;5957308;24;20021;-87
2023/01/03 08:38:36;;;;;;;49.63;27.48;;;2.10;99.90;;;;;;5936670;24;20030;-87
2023/01/03 08:41:04;;;;;;;46.53;24.67;;;2.10;99.90;;;;;;5959705;24;20020;-88
2023/01/03 08:43:33;;;;;;;53.08;26.17;;;2.10;99.90;;;;;;5936335;24;20078;-88
2023/01/03 08:45:58;;;;;;;50.22;26.60;;;2.10;99.90;;;;;;5933567;24;20017;-87
2023/01/03 08:48:25;;;;;;;45.92;24.67;;;2.10;99.90;;;;;;5936910;24;20020;-88
2023/01/03 08:50:51;;;;;;;41.08;22.52;;;2.10;99.90;;;;;;5958224;24;20024;-87
2023/01/03 08:53:16;;;;;;;40.13;21.38;;;2.10;99.90;;;;;;5958439;24;20615;-88
2023/01/03 08:55:43;;;;;;;42.60;18.80;;;2.00;99.90;;;;;;5959546;24;20020;-85
2023/01/03 08:58:08;;;;;;;38.35;20.88;;;2.00;99.90;;;;;;5982617;23;20351;-86
2023/01/03 09:00:38;;;;;;;40.22;19.60;;;1.90;99.90;;;;;;5959842;24;20024;-88
2023/01/03 09:03:04;;;;;;;48.55;19.65;;;1.90;99.90;;;;;;5935880;24;20020;-87
2023/01/03 09:05:33;;;;;;;35.17;18.20;;;1.80;99.90;;;;;;5957496;24;20421;-87
2023/01/03 09:07:58;;;;;;;47.58;20.27;;;1.90;99.90;;;;;;5983224;23;20443;-86
2023/01/03 09:10:24;;;;;;;59.40;20.17;;;1.90;99.90;;;;;;5981197;23;20017;-88
2023/01/03 09:12:50;;;;;;;42.00;19.90;;;1.80;99.90;;;;;;5935904;24;20312;-88
2023/01/03 09:15:16;;;;;;;48.15;20.15;;;1.90;99.90;;;;;;5957975;24;20032;-89
2023/01/03 09:17:44;;;;;;;90.03;24.35;;;1.90;99.90;;;;;;5982686;23;20107;-88
2023/01/03 09:20:14;;;;;;;43.70;21.00;;;2.00;99.90;;;;;;5958507;24;20047;-88
2023/01/03 09:22:40;;;;;;;75.15;22.48;;;2.00;99.90;;;;;;5935395;24;20012;-88
2023/01/03 09:25:06;;;;;;;63.33;21.92;;;2.00;99.90;;;;;;5959948;24;20081;-87
2023/01/03 09:27:32;;;;;;;94.90;23.98;;;2.10;99.90;;;;;;5983255;23;20033;-89
2023/01/03 09:29:58;;;;;;;105.07;25.48;;;2.10;99.90;;;;;;5912912;24;20119;-87
2023/01/03 09:32:23;;;;;;;79.10;24.17;;;2.20;99.90;;;;;;5937364;24;20104;-87
2023/01/03 09:34:52;;;;;;;112.68;25.45;;;2.30;99.90;;;;;;5958036;24;20152;-88
2023/01/03 09:37:18;;;;;;;119.30;24.35;;;2.30;99.90;;;;;;5959016;24;20056;-88
2023/01/03 09:39:43;;;;;;;89.03;23.60;;;2.30;99.90;;;;;;5983086;23;20369;-90
2023/01/03 09:45:06;;;;;;;188.70;30.30;;;2.40;99.90;;;;;;5935632;24;20373;-89
2023/01/03 09:47:39;;;;;;;80.82;22.77;;;2.50;99.90;;;;;;5937539;24;20087;-89
2023/01/03 09:50:08;;;;;;;181.88;29.20;;;2.60;99.90;;;;;;5959704;24;20882;-89
2023/01/03 10:04:42;;;;;;;170.90;33.55;;;3.20;99.90;;;;;;5929387;24;20266;-88
2023/01/03 10:07:44;;;;;;;211.63;34.00;;;3.30;99.90;;;;;;5979331;23;20380;-89
2023/01/03 10:10:27;;;;;;;120.10;29.00;;;3.30;99.90;;;;;;5983558;23;20020;-88
2023/01/03 10:13:09;;;;;;;425.10;46.35;;;3.50;99.90;;;;;;5960755;24;20020;-88
2023/01/03 10:15:55;;;;;;;324.05;40.70;;;3.60;99.90;;;;;;5960029;24;20534;-89
2023/01/03 10:18:41;;;;;;;256.48;40.38;;;3.70;99.90;;;;;;5960567;24;20237;-89
2023/01/03 10:21:36;;;;;;;200.45;36.80;;;3.70;99.90;;;;;;5959588;24;20028;-90
2023/01/03 10:24:13;;;;;;;198.95;33.35;;;3.80;99.90;;;;;;5944178;24;20024;-89
2023/01/03 10:26:39;;;;;;;456.02;53.80;;;3.90;99.90;;;;;;5983778;23;20343;-88
2023/01/03 10:29:04;;;;;;;132.48;32.95;;;3.90;99.90;;;;;;5960749;24;20021;-90
2023/01/03 10:31:46;;;;;;;193.27;38.90;;;4.00;99.90;;;;;;5937332;24;20023;-89
2023/01/03 10:34:11;;;;;;;171.52;36.60;;;3.90;99.90;;;;;;5983633;23;20028;-88
2023/01/03 10:36:37;;;;;;;217.82;39.40;;;4.00;99.90;;;;;;5912141;24;20426;-88
2023/01/03 10:39:05;;;;;;;287.10;43.08;;;4.00;99.90;;;;;;5937194;24;20021;-89
2023/01/03 10:41:55;;;;;;;158.10;35.03;;;4.10;99.90;;;;;;5958438;24;20044;-90
2023/01/03 10:44:27;;;;;;;243.25;42.60;;;4.20;99.90;;;;;;5982973;23;20017;-89
2023/01/03 10:46:59;;;;;;;170.07;36.97;;;4.30;99.90;;;;;;5959575;24;20021;-88
2023/01/03 10:49:30;;;;;;;190.80;41.20;;;4.30;99.90;;;;;;5958443;24;20352;-89
2023/01/03 10:52:08;;;;;;;129.90;38.00;;;4.40;99.90;;;;;;5913429;24;20024;-90
2023/01/03 10:55:00;;;;;;;128.07;35.53;;;4.40;99.90;;;;;;5958946;24;20024;-89
2023/01/03 10:58:03;;;;;;;119.97;35.97;;;4.50;99.90;;;;;;5982550;23;20016;-89
2023/01/03 11:00:28;;;;;;;161.27;41.05;;;4.70;99.90;;;;;;5958785;24;20107;-89
2023/01/03 11:03:00;;;;;;;117.80;36.38;;;4.80;99.90;;;;;;5982894;23;20105;-89
2023/01/03 11:05:26;;;;;;;121.43;38.00;;;4.90;99.90;;;;;;5959477;24;20024;-90
2023/01/03 11:07:53;;;;;;;134.43;40.72;;;5.00;99.90;;;;;;5983099;23;20103;-89
2023/01/03 11:10:20;;;;;;;121.05;40.38;;;5.10;99.90;;;;;;5959435;24;20195;-89
2023/01/03 11:12:47;;;;;;;114.05;39.10;;;5.20;99.90;;;;;;5983203;23;20949;-88
2023/01/03 11:15:31;;;;;;;115.65;40.47;;;5.30;99.90;;;;;;5959788;24;20024;-89
2023/01/03 11:18:04;;;;;;;97.75;36.47;;;5.40;99.90;;;;;;5983036;23;20024;-89
2023/01/03 11:20:42;;;;;;;101.03;37.80;;;5.50;99.90;;;;;;5960138;24;20047;-88
2023/01/03 11:23:24;;;;;;;104.18;39.97;;;5.50;99.90;;;;;;5958326;24;20024;-89
2023/01/03 11:26:20;;;;;;;98.18;37.08;;;5.60;99.90;;;;;;5959467;24;20135;-89
2023/01/03 11:29:23;;;;;;;96.70;38.33;;;5.70;99.90;;;;;;5959463;24;20027;-89
2023/01/03 11:31:54;;;;;;;92.25;36.15;;;5.60;99.90;;;;;;5935592;24;20253;-88
2023/01/03 11:34:34;;;;;;;88.75;36.60;;;5.80;99.90;;;;;;5982675;23;20049;-88
2023/01/03 11:37:21;;;;;;;90.93;37.88;;;5.80;99.90;;;;;;5936684;24;20385;-89
2023/01/03 11:40:20;;;;;;;91.40;35.67;;;5.80;99.90;;;;;;5936154;24;20056;-89
2023/01/03 11:43:17;;;;;;;89.55;37.28;;;5.90;99.90;;;;;;5936137;24;20021;-90
2023/01/03 11:46:05;;;;;;;82.80;34.83;;;5.90;99.90;;;;;;5958564;24;20312;-88
2023/01/03 11:48:46;;;;;;;89.43;36.33;;;6.00;99.90;;;;;;5984575;23;20017;-89
2023/01/03 11:51:52;;;;;;;89.53;37.13;;;6.00;99.90;;;;;;5982693;23;20031;-88
2023/01/03 11:55:06;;;;;;;84.22;34.92;;;6.00;99.90;;;;;;5959579;24;20044;-89
2023/01/03 11:57:50;;;;;;;84.03;34.22;;;6.00;99.90;;;;;;5926249;24;20455;-89
2023/01/03 12:00:26;;;;;;;83.97;35.45;;;6.10;99.90;;;;;;5958997;24;20079;-88
2023/01/03 12:03:01;;;;;;;74.93;34.05;;;6.20;99.90;;;;;;5981080;23;20035;-86
2023/01/03 12:05:42;;;;;;;96.22;34.03;;;6.20;99.90;;;;;;5986993;23;20067;-88
2023/01/03 12:08:32;;;;;;;73.10;34.08;;;6.20;99.90;;;;;;5958751;24;20024;-89
2023/01/03 12:11:03;;;;;;;73.22;34.17;;;6.20;99.90;;;;;;5982945;23;20028;-89
2023/01/03 12:13:53;;;;;;;70.45;32.67;;;6.20;99.90;;;;;;5983681;23;20032;-89
2023/01/03 12:16:30;;;;;;;70.70;32.53;;;6.20;99.90;;;;;;5936566;24;20016;-89
2023/01/03 12:19:21;;;;;;;64.47;30.92;;;6.30;99.90;;;;;;5981913;23;20035;-88
2023/01/03 12:21:59;;;;;;;58.20;28.70;;;6.30;99.90;;;;;;5935070;24;20172;-89
2023/01/03 12:24:30;;;;;;;62.42;30.75;;;6.30;99.90;;;;;;5958997;24;20021;-88
2023/01/03 12:27:05;;;;;;;56.58;30.08;;;6.40;99.90;;;;;;5936312;24;20016;-89
2023/01/03 12:29:47;;;;;;;56.47;27.77;;;6.40;99.90;;;;;;5961472;24;20561;-89
2023/01/03 12:32:19;;;;;;;62.88;28.83;;;6.40;99.90;;;;;;5984618;23;20567;-89
2023/01/03 12:35:14;;;;;;;59.65;26.98;;;6.40;99.90;;;;;;5959816;24;20024;-90
2023/01/03 12:37:41;;;;;;;58.03;27.00;;;6.40;99.90;;;;;;5958467;24;20099;-89
2023/01/03 12:40:59;;;;;;;50.67;27.23;;;6.40;99.90;;;;;;5959652;24;20149;-88
2023/01/03 12:43:37;;;;;;;49.88;25.75;;;6.40;99.90;;;;;;5803904;24;20342;-90
2023/01/03 12:46:14;;;;;;;50.35;26.73;;;6.40;99.90;;;;;;5912086;24;20044;-90
2023/01/03 12:49:01;;;;;;;53.78;27.60;;;6.50;99.90;;;;;;5958833;24;20391;-91
2023/01/03 12:51:27;;;;;;;50.30;25.92;;;6.50;99.90;;;;;;5981212;23;20021;-89
2023/01/03 12:54:04;;;;;;;48.50;25.33;;;6.50;99.90;;;;;;5958866;24;20027;-88
2023/01/03 12:56:39;;;;;;;48.55;25.10;;;6.50;99.90;;;;;;5983049;23;20020;-89
2023/01/03 12:59:23;;;;;;;47.45;25.00;;;6.60;99.90;;;;;;5938760;24;20057;-89
2023/01/03 13:01:53;;;;;;;44.10;25.13;;;6.60;99.90;;;;;;5936266;24;20809;-89
2023/01/03 13:04:27;;;;;;;43.10;23.67;;;6.70;99.90;;;;;;5936382;24;20020;-87
2023/01/03 13:07:17;;;;;;;44.50;23.58;;;6.70;99.90;;;;;;5982681;23;20400;-88
2023/01/03 13:09:54;;;;;;;42.75;21.88;;;6.70;99.90;;;;;;5983303;23;20016;-89
2023/01/03 13:12:33;;;;;;;46.40;22.90;;;6.70;99.90;;;;;;5960340;24;20016;-88
2023/01/03 13:15:02;;;;;;;46.20;23.95;;;6.60;99.90;;;;;;5958144;24;20060;-90
2023/01/03 13:17:43;;;;;;;49.83;24.58;;;6.70;99.90;;;;;;5936196;24;20020;-89
2023/01/03 13:20:26;;;;;;;46.80;24.73;;;6.70;99.90;;;;;;5959525;24;20016;-88
2023/01/03 13:22:59;;;;;;;43.50;23.85;;;6.70;99.90;;;;;;5959123;24;20016;-89
2023/01/03 13:25:40;;;;;;;44.75;23.27;;;6.70;99.90;;;;;;5983924;23;20020;-88
2023/01/03 13:28:29;;;;;;;43.17;22.73;;;6.70;99.90;;;;;;5937408;24;20050;-89
2023/01/03 13:31:13;;;;;;;40.15;22.25;;;6.80;99.90;;;;;;5984011;23;20021;-89
2023/01/03 13:33:55;;;;;;;41.08;21.10;;;6.90;99.90;;;;;;5938259;24;20060;-90
2023/01/03 13:36:45;;;;;;;42.10;22.67;;;6.80;99.90;;;;;;5960130;24;20024;-88
2023/01/03 13:39:36;;;;;;;36.40;20.88;;;6.90;99.90;;;;;;5959929;24;20031;-89
2023/01/03 13:42:05;;;;;;;44.05;21.65;;;6.90;99.90;;;;;;5937362;24;20028;-89
2023/01/03 13:44:30;;;;;;;40.53;21.48;;;6.90;99.90;;;;;;5960348;24;20024;-89
2023/01/03 13:46:58;;;;;;;41.78;21.20;;;7.00;99.90;;;;;;5937540;24;20020;-89
2023/01/03 13:49:26;;;;;;;38.92;22.10;;;7.00;99.90;;;;;;5959772;24;20063;-88
2023/01/03 13:51:55;;;;;;;38.97;20.92;;;7.00;99.90;;;;;;5983770;23;20023;-89
2023/01/03 13:54:20;;;;;;;34.95;18.70;;;7.00;99.90;;;;;;5960340;24;20076;-90
2023/01/03 13:56:49;;;;;;;37.85;18.92;;;7.00;99.90;;;;;;5936032;24;20024;-88
2023/01/03 13:59:17;;;;;;;36.15;18.70;;;7.00;99.90;;;;;;5984289;23;20107;-90
2023/01/03 14:02:07;;;;;;;32.75;17.95;;;7.00;99.90;;;;;;5983272;23;20127;-88
2023/01/03 14:05:06;;;;;;;33.03;19.73;;;7.00;99.90;;;;;;5935916;24;20085;-89
2023/01/03 14:07:51;;;;;;;36.65;18.33;;;7.00;99.90;;;;;;5935701;24;20483;-89
2023/01/03 14:10:38;;;;;;;32.55;17.73;;;7.00;99.90;;;;;;5936236;24;20016;-89